Terminal Aerodrome Forecast
Issued by NWS Lubbock, TX

Home | Current Version | Previous Version | Text Only | Print | Product List | Glossary On
Versions: 1 2 3 4 5 6 7 8 9 10 11 12 13 14
000
FTUS44 KLUB 051120
TAFLBB
TAF
KLBB 051120Z 0512/0612 19010KT P6SM SCT250
     FM051500 20013G18KT P6SM SCT060
     FM052100 17015G20KT P6SM SCT080 SCT200
     FM060300 17012KT P6SM SCT060 BKN200=

USA.gov is the U.S. government's official web portal to all federal, state and local government web resources and services.